sensor_id;sensor_type;location;lat;lon;timestamp;P1;durP1;ratioP1;P2;durP2;ratioP2
42134;SDS011;28312;43.460;11.810;2023-03-18T00:02:29;7.30;;;6.05;;
42134;SDS011;28312;43.460;11.810;2023-03-18T00:06:35;10.88;;;6.68;;
42134;SDS011;28312;43.460;11.810;2023-03-18T00:10:39;9.00;;;6.10;;
42134;SDS011;28312;43.460;11.810;2023-03-18T00:14:44;10.77;;;6.25;;
42134;SDS011;28312;43.460;11.810;2023-03-18T00:18:48;9.15;;;4.85;;
42134;SDS011;28312;43.460;11.810;2023-03-18T00:22:51;7.50;;;5.63;;
42134;SDS011;28312;43.460;11.810;2023-03-18T00:26:55;7.68;;;5.65;;
42134;SDS011;28312;43.460;11.810;2023-03-18T00:31:03;7.32;;;5.30;;
42134;SDS011;28312;43.460;11.810;2023-03-18T00:35:10;6.22;;;4.70;;
42134;SDS011;28312;43.460;11.810;2023-03-18T00:39:13;7.35;;;5.30;;
42134;SDS011;28312;43.460;11.810;2023-03-18T00:43:20;6.90;;;5.38;;
42134;SDS011;28312;43.460;11.810;2023-03-18T00:47:25;8.57;;;5.80;;
42134;SDS011;28312;43.460;11.810;2023-03-18T00:51:30;6.97;;;5.75;;
42134;SDS011;28312;43.460;11.810;2023-03-18T00:55:36;10.85;;;4.97;;
42134;SDS011;28312;43.460;11.810;2023-03-18T00:59:41;7.07;;;5.45;;
42134;SDS011;28312;43.460;11.810;2023-03-18T01:03:45;5.53;;;4.75;;
42134;SDS011;28312;43.460;11.810;2023-03-18T01:07:50;7.60;;;4.43;;
42134;SDS011;28312;43.460;11.810;2023-03-18T01:11:54;6.97;;;4.45;;
42134;SDS011;28312;43.460;11.810;2023-03-18T01:15:58;7.72;;;5.25;;
42134;SDS011;28312;43.460;11.810;2023-03-18T01:20:03;6.57;;;4.97;;
42134;SDS011;28312;43.460;11.810;2023-03-18T01:24:07;7.70;;;4.68;;
42134;SDS011;28312;43.460;11.810;2023-03-18T01:28:13;4.78;;;4.05;;
42134;SDS011;28312;43.460;11.810;2023-03-18T01:32:19;6.53;;;5.05;;
42134;SDS011;28312;43.460;11.810;2023-03-18T01:36:24;10.57;;;4.43;;
42134;SDS011;28312;43.460;11.810;2023-03-18T01:45:08;6.60;;;5.47;;
42134;SDS011;28312;43.460;11.810;2023-03-18T01:49:27;7.95;;;4.35;;
42134;SDS011;28312;43.460;11.810;2023-03-18T01:53:40;6.85;;;4.75;;
42134;SDS011;28312;43.460;11.810;2023-03-18T01:57:47;6.05;;;4.88;;
42134;SDS011;28312;43.460;11.810;2023-03-18T02:01:52;8.93;;;4.95;;
42134;SDS011;28312;43.460;11.810;2023-03-18T02:06:05;7.63;;;5.32;;
42134;SDS011;28312;43.460;11.810;2023-03-18T02:10:13;6.70;;;4.70;;
42134;SDS011;28312;43.460;11.810;2023-03-18T02:14:21;5.65;;;4.25;;
42134;SDS011;28312;43.460;11.810;2023-03-18T02:18:40;5.10;;;3.47;;
42134;SDS011;28312;43.460;11.810;2023-03-18T02:22:49;5.00;;;3.65;;
42134;SDS011;28312;43.460;11.810;2023-03-18T02:26:58;7.70;;;4.53;;
42134;SDS011;28312;43.460;11.810;2023-03-18T02:31:12;6.07;;;4.60;;
42134;SDS011;28312;43.460;11.810;2023-03-18T02:35:19;5.90;;;4.45;;
42134;SDS011;28312;43.460;11.810;2023-03-18T02:39:25;7.10;;;4.50;;
42134;SDS011;28312;43.460;11.810;2023-03-18T02:43:31;4.93;;;4.20;;
42134;SDS011;28312;43.460;11.810;2023-03-18T02:47:40;5.45;;;4.25;;
42134;SDS011;28312;43.460;11.810;2023-03-18T02:51:46;5.85;;;3.50;;
42134;SDS011;28312;43.460;11.810;2023-03-18T02:55:51;5.43;;;3.10;;
42134;SDS011;28312;43.460;11.810;2023-03-18T02:59:56;7.20;;;4.00;;
42134;SDS011;28312;43.460;11.810;2023-03-18T03:04:00;5.95;;;3.70;;
42134;SDS011;28312;43.460;11.810;2023-03-18T03:08:04;5.90;;;3.63;;
42134;SDS011;28312;43.460;11.810;2023-03-18T03:12:12;4.38;;;3.15;;
42134;SDS011;28312;43.460;11.810;2023-03-18T03:16:24;5.43;;;3.78;;
42134;SDS011;28312;43.460;11.810;2023-03-18T03:24:40;7.57;;;3.03;;
42134;SDS011;28312;43.460;11.810;2023-03-18T03:28:44;4.90;;;3.42;;
42134;SDS011;28312;43.460;11.810;2023-03-18T03:32:48;4.00;;;3.20;;
42134;SDS011;28312;43.460;11.810;2023-03-18T03:36:53;4.35;;;2.85;;
42134;SDS011;28312;43.460;11.810;2023-03-18T03:40:59;5.22;;;3.63;;
42134;SDS011;28312;43.460;11.810;2023-03-18T03:45:03;8.18;;;4.45;;
42134;SDS011;28312;43.460;11.810;2023-03-18T03:49:07;4.57;;;3.75;;
42134;SDS011;28312;43.460;11.810;2023-03-18T03:53:11;6.32;;;3.65;;
42134;SDS011;28312;43.460;11.810;2023-03-18T03:57:15;4.63;;;3.45;;
42134;SDS011;28312;43.460;11.810;2023-03-18T04:01:19;5.35;;;3.85;;
42134;SDS011;28312;43.460;11.810;2023-03-18T04:05:23;5.18;;;3.47;;
42134;SDS011;28312;43.460;11.810;2023-03-18T04:09:27;6.03;;;3.90;;
42134;SDS011;28312;43.460;11.810;2023-03-18T04:13:31;5.45;;;4.18;;
42134;SDS011;28312;43.460;11.810;2023-03-18T04:17:35;5.60;;;2.83;;
42134;SDS011;28312;43.460;11.810;2023-03-18T04:21:43;4.18;;;3.67;;
42134;SDS011;28312;43.460;11.810;2023-03-18T04:25:48;4.15;;;3.10;;
42134;SDS011;28312;43.460;11.810;2023-03-18T04:29:53;2.90;;;1.98;;
42134;SDS011;28312;43.460;11.810;2023-03-18T04:34:02;5.38;;;3.13;;
42134;SDS011;28312;43.460;11.810;2023-03-18T04:38:05;4.65;;;3.45;;
42134;SDS011;28312;43.460;11.810;2023-03-18T04:42:09;5.80;;;3.70;;
42134;SDS011;28312;43.460;11.810;2023-03-18T04:46:13;4.78;;;3.67;;
42134;SDS011;28312;43.460;11.810;2023-03-18T04:54:23;4.88;;;3.50;;
42134;SDS011;28312;43.460;11.810;2023-03-18T04:58:31;5.93;;;3.60;;
42134;SDS011;28312;43.460;11.810;2023-03-18T05:02:44;5.43;;;3.28;;
42134;SDS011;28312;43.460;11.810;2023-03-18T05:06:48;8.13;;;2.88;;
42134;SDS011;28312;43.460;11.810;2023-03-18T05:10:55;4.88;;;3.17;;
42134;SDS011;28312;43.460;11.810;2023-03-18T05:14:59;3.90;;;2.70;;
42134;SDS011;28312;43.460;11.810;2023-03-18T05:19:04;3.72;;;2.55;;
42134;SDS011;28312;43.460;11.810;2023-03-18T05:23:08;5.40;;;3.45;;
42134;SDS011;28312;43.460;11.810;2023-03-18T05:27:22;4.25;;;3.33;;
42134;SDS011;28312;43.460;11.810;2023-03-18T05:31:39;4.20;;;3.13;;
42134;SDS011;28312;43.460;11.810;2023-03-18T05:35:46;3.72;;;2.85;;
42134;SDS011;28312;43.460;11.810;2023-03-18T05:39:52;3.75;;;2.63;;
42134;SDS011;28312;43.460;11.810;2023-03-18T05:43:55;3.65;;;2.92;;
42134;SDS011;28312;43.460;11.810;2023-03-18T05:48:01;4.00;;;2.80;;
42134;SDS011;28312;43.460;11.810;2023-03-18T05:52:12;2.30;;;1.27;;
42134;SDS011;28312;43.460;11.810;2023-03-18T05:56:23;4.70;;;2.28;;
42134;SDS011;28312;43.460;11.810;2023-03-18T06:00:31;5.30;;;2.38;;
42134;SDS011;28312;43.460;11.810;2023-03-18T06:04:35;5.35;;;2.53;;
42134;SDS011;28312;43.460;11.810;2023-03-18T06:08:39;3.88;;;2.22;;
42134;SDS011;28312;43.460;11.810;2023-03-18T06:12:43;5.80;;;2.92;;
42134;SDS011;28312;43.460;11.810;2023-03-18T06:16:47;2.85;;;2.22;;
42134;SDS011;28312;43.460;11.810;2023-03-18T06:20:55;3.97;;;2.67;;
42134;SDS011;28312;43.460;11.810;2023-03-18T06:24:59;2.85;;;2.05;;
42134;SDS011;28312;43.460;11.810;2023-03-18T06:29:04;4.05;;;2.50;;
42134;SDS011;28312;43.460;11.810;2023-03-18T06:33:08;2.58;;;1.80;;
42134;SDS011;28312;43.460;11.810;2023-03-18T06:37:12;3.55;;;1.98;;
42134;SDS011;28312;43.460;11.810;2023-03-18T06:41:17;4.43;;;2.53;;
42134;SDS011;28312;43.460;11.810;2023-03-18T06:45:37;3.75;;;2.55;;
42134;SDS011;28312;43.460;11.810;2023-03-18T06:49:43;3.42;;;2.47;;
42134;SDS011;28312;43.460;11.810;2023-03-18T06:53:52;3.63;;;2.05;;
42134;SDS011;28312;43.460;11.810;2023-03-18T06:57:56;7.88;;;5.32;;
42134;SDS011;28312;43.460;11.810;2023-03-18T07:02:09;4.00;;;2.83;;
42134;SDS011;28312;43.460;11.810;2023-03-18T07:06:13;6.22;;;2.00;;
42134;SDS011;28312;43.460;11.810;2023-03-18T07:10:25;4.85;;;3.67;;
42134;SDS011;28312;43.460;11.810;2023-03-18T07:14:42;7.40;;;4.95;;
42134;SDS011;28312;43.460;11.810;2023-03-18T07:18:46;10.95;;;6.18;;
42134;SDS011;28312;43.460;11.810;2023-03-18T07:22:50;15.80;;;11.20;;
42134;SDS011;28312;43.460;11.810;2023-03-18T07:26:55;17.13;;;11.32;;
42134;SDS011;28312;43.460;11.810;2023-03-18T07:30:59;17.58;;;9.77;;
42134;SDS011;28312;43.460;11.810;2023-03-18T07:35:03;12.13;;;6.63;;
42134;SDS011;28312;43.460;11.810;2023-03-18T07:39:07;15.35;;;7.25;;
42134;SDS011;28312;43.460;11.810;2023-03-18T07:43:11;13.75;;;9.18;;
42134;SDS011;28312;43.460;11.810;2023-03-18T07:47:15;13.38;;;8.48;;
42134;SDS011;28312;43.460;11.810;2023-03-18T07:51:18;13.55;;;7.60;;
42134;SDS011;28312;43.460;11.810;2023-03-18T07:55:22;7.63;;;4.65;;
42134;SDS011;28312;43.460;11.810;2023-03-18T07:59:26;7.47;;;4.90;;
42134;SDS011;28312;43.460;11.810;2023-03-18T08:03:29;7.57;;;4.32;;
42134;SDS011;28312;43.460;11.810;2023-03-18T08:07:33;15.30;;;9.63;;
42134;SDS011;28312;43.460;11.810;2023-03-18T08:11:37;6.53;;;4.00;;
42134;SDS011;28312;43.460;11.810;2023-03-18T08:15:41;12.48;;;8.60;;
42134;SDS011;28312;43.460;11.810;2023-03-18T08:19:45;4.47;;;2.78;;
42134;SDS011;28312;43.460;11.810;2023-03-18T08:23:50;5.90;;;3.30;;
42134;SDS011;28312;43.460;11.810;2023-03-18T08:27:54;9.35;;;4.90;;
42134;SDS011;28312;43.460;11.810;2023-03-18T08:31:58;3.97;;;2.90;;
42134;SDS011;28312;43.460;11.810;2023-03-18T08:36:01;3.00;;;1.83;;
42134;SDS011;28312;43.460;11.810;2023-03-18T08:40:05;6.13;;;3.60;;
42134;SDS011;28312;43.460;11.810;2023-03-18T08:44:11;8.07;;;4.10;;
42134;SDS011;28312;43.460;11.810;2023-03-18T08:48:14;6.47;;;3.80;;
42134;SDS011;28312;43.460;11.810;2023-03-18T08:52:18;9.93;;;3.95;;
42134;SDS011;28312;43.460;11.810;2023-03-18T08:56:21;5.10;;;3.05;;
42134;SDS011;28312;43.460;11.810;2023-03-18T09:00:26;6.30;;;4.18;;
42134;SDS011;28312;43.460;11.810;2023-03-18T09:04:30;6.07;;;4.05;;
42134;SDS011;28312;43.460;11.810;2023-03-18T09:08:34;9.82;;;6.03;;
42134;SDS011;28312;43.460;11.810;2023-03-18T09:12:38;10.50;;;5.72;;
42134;SDS011;28312;43.460;11.810;2023-03-18T09:16:43;11.77;;;4.97;;
42134;SDS011;28312;43.460;11.810;2023-03-18T09:20:47;9.15;;;3.90;;
42134;SDS011;28312;43.460;11.810;2023-03-18T09:24:51;6.15;;;4.30;;
42134;SDS011;28312;43.460;11.810;2023-03-18T09:28:55;8.82;;;4.78;;
42134;SDS011;28312;43.460;11.810;2023-03-18T09:32:59;6.65;;;4.70;;
42134;SDS011;28312;43.460;11.810;2023-03-18T09:37:03;8.65;;;4.82;;
42134;SDS011;28312;43.460;11.810;2023-03-18T09:53:58;12.75;;;6.00;;
42134;SDS011;28312;43.460;11.810;2023-03-18T09:58:20;9.75;;;5.40;;
42134;SDS011;28312;43.460;11.810;2023-03-18T10:02:32;7.03;;;5.15;;
42134;SDS011;28312;43.460;11.810;2023-03-18T10:06:50;7.07;;;5.20;;
42134;SDS011;28312;43.460;11.810;2023-03-18T10:11:00;6.75;;;4.35;;
42134;SDS011;28312;43.460;11.810;2023-03-18T10:19:16;5.50;;;3.47;;
42134;SDS011;28312;43.460;11.810;2023-03-18T10:32:23;5.18;;;2.75;;
42134;SDS011;28312;43.460;11.810;2023-03-18T10:41:14;4.78;;;2.33;;
42134;SDS011;28312;43.460;11.810;2023-03-18T10:45:24;4.15;;;2.17;;
42134;SDS011;28312;43.460;11.810;2023-03-18T10:49:33;8.60;;;2.60;;
42134;SDS011;28312;43.460;11.810;2023-03-18T10:53:45;7.10;;;3.50;;
42134;SDS011;28312;43.460;11.810;2023-03-18T10:57:56;7.33;;;5.37;;
42134;SDS011;28312;43.460;11.810;2023-03-18T11:02:03;6.72;;;3.45;;
42134;SDS011;28312;43.460;11.810;2023-03-18T11:06:22;6.10;;;3.80;;
42134;SDS011;28312;43.460;11.810;2023-03-18T11:10:45;4.80;;;2.58;;
42134;SDS011;28312;43.460;11.810;2023-03-18T11:14:50;3.15;;;2.08;;
42134;SDS011;28312;43.460;11.810;2023-03-18T11:18:55;4.55;;;2.35;;
42134;SDS011;28312;43.460;11.810;2023-03-18T11:23:02;3.50;;;2.40;;
42134;SDS011;28312;43.460;11.810;2023-03-18T11:31:18;2.97;;;1.48;;
42134;SDS011;28312;43.460;11.810;2023-03-18T11:35:23;2.72;;;1.85;;
42134;SDS011;28312;43.460;11.810;2023-03-18T11:39:35;2.40;;;1.80;;
42134;SDS011;28312;43.460;11.810;2023-03-18T11:44:00;3.15;;;1.75;;
42134;SDS011;28312;43.460;11.810;2023-03-18T11:48:21;2.60;;;1.42;;
42134;SDS011;28312;43.460;11.810;2023-03-18T12:05:39;2.15;;;1.40;;
42134;SDS011;28312;43.460;11.810;2023-03-18T12:18:47;2.80;;;1.73;;
42134;SDS011;28312;43.460;11.810;2023-03-18T12:23:12;3.95;;;1.85;;
42134;SDS011;28312;43.460;11.810;2023-03-18T12:31:43;3.25;;;1.95;;
42134;SDS011;28312;43.460;11.810;2023-03-18T12:40:10;3.78;;;2.28;;
42134;SDS011;28312;43.460;11.810;2023-03-18T12:53:40;3.22;;;2.28;;
42134;SDS011;28312;43.460;11.810;2023-03-18T12:57:49;3.97;;;2.10;;
42134;SDS011;28312;43.460;11.810;2023-03-18T13:02:15;5.88;;;2.38;;
42134;SDS011;28312;43.460;11.810;2023-03-18T13:06:45;3.03;;;2.15;;
42134;SDS011;28312;43.460;11.810;2023-03-18T13:10:53;4.55;;;2.50;;
42134;SDS011;28312;43.460;11.810;2023-03-18T13:19:39;4.20;;;2.47;;
42134;SDS011;28312;43.460;11.810;2023-03-18T13:33:09;3.35;;;2.15;;
42134;SDS011;28312;43.460;11.810;2023-03-18T13:37:26;4.10;;;2.30;;
42134;SDS011;28312;43.460;11.810;2023-03-18T13:46:01;4.30;;;3.00;;
42134;SDS011;28312;43.460;11.810;2023-03-18T13:50:22;3.80;;;1.92;;
42134;SDS011;28312;43.460;11.810;2023-03-18T13:54:36;7.55;;;3.22;;
42134;SDS011;28312;43.460;11.810;2023-03-18T13:58:45;6.05;;;2.88;;
42134;SDS011;28312;43.460;11.810;2023-03-18T14:03:13;3.00;;;1.85;;
42134;SDS011;28312;43.460;11.810;2023-03-18T14:07:20;6.78;;;4.60;;
42134;SDS011;28312;43.460;11.810;2023-03-18T14:15:35;4.53;;;2.47;;
42134;SDS011;28312;43.460;11.810;2023-03-18T14:19:40;3.88;;;1.85;;
42134;SDS011;28312;43.460;11.810;2023-03-18T14:23:47;4.20;;;2.90;;
42134;SDS011;28312;43.460;11.810;2023-03-18T14:28:22;4.13;;;2.35;;
42134;SDS011;28312;43.460;11.810;2023-03-18T14:40:56;6.80;;;2.97;;
42134;SDS011;28312;43.460;11.810;2023-03-18T14:53:41;4.88;;;2.60;;
42134;SDS011;28312;43.460;11.810;2023-03-18T14:58:14;4.18;;;2.65;;
42134;SDS011;28312;43.460;11.810;2023-03-18T15:02:21;2.95;;;1.80;;
42134;SDS011;28312;43.460;11.810;2023-03-18T15:06:38;4.95;;;2.13;;
42134;SDS011;28312;43.460;11.810;2023-03-18T15:10:44;5.32;;;2.58;;
42134;SDS011;28312;43.460;11.810;2023-03-18T15:14:51;5.07;;;3.55;;
42134;SDS011;28312;43.460;11.810;2023-03-18T15:18:55;3.17;;;1.98;;
42134;SDS011;28312;43.460;11.810;2023-03-18T15:22:58;5.95;;;2.72;;
42134;SDS011;28312;43.460;11.810;2023-03-18T15:27:09;3.40;;;2.05;;
42134;SDS011;28312;43.460;11.810;2023-03-18T15:31:24;4.18;;;2.13;;
42134;SDS011;28312;43.460;11.810;2023-03-18T15:35:30;4.47;;;2.30;;
42134;SDS011;28312;43.460;11.810;2023-03-18T15:39:35;3.95;;;2.03;;
42134;SDS011;28312;43.460;11.810;2023-03-18T15:43:44;3.50;;;2.15;;
42134;SDS011;28312;43.460;11.810;2023-03-18T15:47:49;3.13;;;1.80;;
42134;SDS011;28312;43.460;11.810;2023-03-18T15:51:57;3.65;;;1.95;;
42134;SDS011;28312;43.460;11.810;2023-03-18T15:56:09;4.32;;;2.13;;
42134;SDS011;28312;43.460;11.810;2023-03-18T16:00:18;5.40;;;2.60;;
42134;SDS011;28312;43.460;11.810;2023-03-18T16:04:23;4.13;;;1.60;;
42134;SDS011;28312;43.460;11.810;2023-03-18T16:08:27;4.95;;;2.30;;
42134;SDS011;28312;43.460;11.810;2023-03-18T16:12:31;4.28;;;2.03;;
42134;SDS011;28312;43.460;11.810;2023-03-18T16:16:36;4.88;;;1.77;;
42134;SDS011;28312;43.460;11.810;2023-03-18T16:20:39;4.45;;;1.92;;
42134;SDS011;28312;43.460;11.810;2023-03-18T16:24:47;3.30;;;1.60;;
42134;SDS011;28312;43.460;11.810;2023-03-18T16:28:52;3.70;;;1.92;;
42134;SDS011;28312;43.460;11.810;2023-03-18T16:32:56;2.25;;;1.42;;
42134;SDS011;28312;43.460;11.810;2023-03-18T16:37:00;29.25;;;17.98;;
42134;SDS011;28312;43.460;11.810;2023-03-18T16:41:05;7.45;;;3.72;;
42134;SDS011;28312;43.460;11.810;2023-03-18T16:45:17;4.25;;;2.72;;
42134;SDS011;28312;43.460;11.810;2023-03-18T16:49:32;3.92;;;2.30;;
42134;SDS011;28312;43.460;11.810;2023-03-18T16:53:38;4.95;;;2.60;;
42134;SDS011;28312;43.460;11.810;2023-03-18T16:57:49;4.43;;;2.28;;
42134;SDS011;28312;43.460;11.810;2023-03-18T17:01:59;6.82;;;2.97;;
42134;SDS011;28312;43.460;11.810;2023-03-18T17:06:05;3.42;;;1.70;;
42134;SDS011;28312;43.460;11.810;2023-03-18T17:10:10;4.07;;;1.90;;
42134;SDS011;28312;43.460;11.810;2023-03-18T17:18:37;3.60;;;2.17;;
42134;SDS011;28312;43.460;11.810;2023-03-18T17:22:40;3.45;;;2.35;;
42134;SDS011;28312;43.460;11.810;2023-03-18T17:26:45;5.63;;;2.10;;
42134;SDS011;28312;43.460;11.810;2023-03-18T17:30:50;8.68;;;2.65;;
42134;SDS011;28312;43.460;11.810;2023-03-18T17:34:53;3.50;;;2.13;;
42134;SDS011;28312;43.460;11.810;2023-03-18T17:38:57;3.92;;;2.20;;
42134;SDS011;28312;43.460;11.810;2023-03-18T17:43:01;6.88;;;2.85;;
42134;SDS011;28312;43.460;11.810;2023-03-18T17:47:07;5.65;;;3.33;;
42134;SDS011;28312;43.460;11.810;2023-03-18T17:55:19;3.05;;;1.77;;
42134;SDS011;28312;43.460;11.810;2023-03-18T17:59:25;6.35;;;2.38;;
42134;SDS011;28312;43.460;11.810;2023-03-18T18:03:30;3.83;;;2.42;;
42134;SDS011;28312;43.460;11.810;2023-03-18T18:07:34;7.07;;;4.70;;
42134;SDS011;28312;43.460;11.810;2023-03-18T18:11:40;3.13;;;1.83;;
42134;SDS011;28312;43.460;11.810;2023-03-18T18:15:48;14.02;;;6.93;;
42134;SDS011;28312;43.460;11.810;2023-03-18T18:19:52;15.25;;;10.02;;
42134;SDS011;28312;43.460;11.810;2023-03-18T18:23:56;18.70;;;13.65;;
42134;SDS011;28312;43.460;11.810;2023-03-18T18:27:59;16.75;;;9.95;;
42134;SDS011;28312;43.460;11.810;2023-03-18T18:32:03;7.55;;;4.53;;
42134;SDS011;28312;43.460;11.810;2023-03-18T18:36:08;6.43;;;4.35;;
42134;SDS011;28312;43.460;11.810;2023-03-18T18:40:12;8.70;;;3.50;;
42134;SDS011;28312;43.460;11.810;2023-03-18T18:44:18;5.60;;;2.65;;
42134;SDS011;28312;43.460;11.810;2023-03-18T18:48:34;3.63;;;2.40;;
42134;SDS011;28312;43.460;11.810;2023-03-18T18:52:41;6.40;;;2.85;;
42134;SDS011;28312;43.460;11.810;2023-03-18T18:56:45;6.05;;;2.00;;
42134;SDS011;28312;43.460;11.810;2023-03-18T19:04:58;3.90;;;2.42;;
42134;SDS011;28312;43.460;11.810;2023-03-18T19:09:08;6.95;;;1.83;;
42134;SDS011;28312;43.460;11.810;2023-03-18T19:13:26;2.60;;;1.50;;
42134;SDS011;28312;43.460;11.810;2023-03-18T19:17:31;3.90;;;2.00;;
42134;SDS011;28312;43.460;11.810;2023-03-18T19:21:35;4.30;;;1.90;;
42134;SDS011;28312;43.460;11.810;2023-03-18T19:25:40;3.13;;;1.40;;
42134;SDS011;28312;43.460;11.810;2023-03-18T19:29:45;1.98;;;1.25;;
42134;SDS011;28312;43.460;11.810;2023-03-18T19:33:49;3.17;;;1.10;;
42134;SDS011;28312;43.460;11.810;2023-03-18T19:37:54;2.47;;;1.40;;
42134;SDS011;28312;43.460;11.810;2023-03-18T19:42:00;4.53;;;3.67;;
42134;SDS011;28312;43.460;11.810;2023-03-18T19:46:03;2.95;;;1.50;;
42134;SDS011;28312;43.460;11.810;2023-03-18T19:50:15;3.45;;;2.40;;
42134;SDS011;28312;43.460;11.810;2023-03-18T19:58:26;2.40;;;1.38;;
42134;SDS011;28312;43.460;11.810;2023-03-18T20:02:30;2.35;;;1.30;;
42134;SDS011;28312;43.460;11.810;2023-03-18T20:06:35;1.83;;;1.17;;
42134;SDS011;28312;43.460;11.810;2023-03-18T20:10:39;2.25;;;1.27;;
42134;SDS011;28312;43.460;11.810;2023-03-18T20:14:44;2.45;;;1.40;;
42134;SDS011;28312;43.460;11.810;2023-03-18T20:18:47;2.42;;;1.20;;
42134;SDS011;28312;43.460;11.810;2023-03-18T20:23:01;1.83;;;1.00;;
42134;SDS011;28312;43.460;11.810;2023-03-18T20:27:06;1.27;;;0.73;;
42134;SDS011;28312;43.460;11.810;2023-03-18T20:31:09;2.00;;;1.13;;
42134;SDS011;28312;43.460;11.810;2023-03-18T20:35:13;2.35;;;1.25;;
42134;SDS011;28312;43.460;11.810;2023-03-18T20:39:18;3.00;;;1.67;;
42134;SDS011;28312;43.460;11.810;2023-03-18T20:43:23;1.98;;;1.27;;
42134;SDS011;28312;43.460;11.810;2023-03-18T20:47:30;2.50;;;1.30;;
42134;SDS011;28312;43.460;11.810;2023-03-18T20:51:35;2.63;;;1.55;;
42134;SDS011;28312;43.460;11.810;2023-03-18T20:55:44;2.95;;;1.40;;
42134;SDS011;28312;43.460;11.810;2023-03-18T20:59:52;2.80;;;1.75;;
42134;SDS011;28312;43.460;11.810;2023-03-18T21:03:58;2.55;;;1.30;;
42134;SDS011;28312;43.460;11.810;2023-03-18T21:08:04;2.63;;;1.83;;
42134;SDS011;28312;43.460;11.810;2023-03-18T21:12:15;2.20;;;1.45;;
42134;SDS011;28312;43.460;11.810;2023-03-18T21:16:21;3.53;;;1.92;;
42134;SDS011;28312;43.460;11.810;2023-03-18T21:20:27;4.13;;;1.65;;
42134;SDS011;28312;43.460;11.810;2023-03-18T21:28:38;3.42;;;1.85;;
42134;SDS011;28312;43.460;11.810;2023-03-18T21:32:46;2.83;;;2.00;;
42134;SDS011;28312;43.460;11.810;2023-03-18T21:36:54;2.97;;;1.98;;
42134;SDS011;28312;43.460;11.810;2023-03-18T21:41:02;3.55;;;2.50;;
42134;SDS011;28312;43.460;11.810;2023-03-18T21:45:08;2.42;;;1.55;;
42134;SDS011;28312;43.460;11.810;2023-03-18T21:49:16;2.33;;;1.52;;
42134;SDS011;28312;43.460;11.810;2023-03-18T21:53:20;4.20;;;2.20;;
42134;SDS011;28312;43.460;11.810;2023-03-18T21:57:27;2.75;;;1.98;;
42134;SDS011;28312;43.460;11.810;2023-03-18T22:01:32;4.32;;;1.88;;
42134;SDS011;28312;43.460;11.810;2023-03-18T22:05:38;4.15;;;1.92;;
42134;SDS011;28312;43.460;11.810;2023-03-18T22:09:43;8.20;;;4.40;;
42134;SDS011;28312;43.460;11.810;2023-03-18T22:13:49;4.13;;;2.17;;
42134;SDS011;28312;43.460;11.810;2023-03-18T22:17:54;3.00;;;2.10;;
42134;SDS011;28312;43.460;11.810;2023-03-18T22:22:00;4.30;;;2.25;;
42134;SDS011;28312;43.460;11.810;2023-03-18T22:26:06;5.63;;;3.08;;
42134;SDS011;28312;43.460;11.810;2023-03-18T22:30:14;4.25;;;2.63;;
42134;SDS011;28312;43.460;11.810;2023-03-18T22:34:22;5.00;;;2.17;;
42134;SDS011;28312;43.460;11.810;2023-03-18T22:38:27;7.22;;;2.85;;
42134;SDS011;28312;43.460;11.810;2023-03-18T22:42:32;2.80;;;1.90;;
42134;SDS011;28312;43.460;11.810;2023-03-18T22:46:38;13.93;;;9.40;;
42134;SDS011;28312;43.460;11.810;2023-03-18T22:50:43;7.53;;;3.42;;
42134;SDS011;28312;43.460;11.810;2023-03-18T22:54:48;5.05;;;2.05;;
42134;SDS011;28312;43.460;11.810;2023-03-18T22:58:54;2.22;;;1.80;;
42134;SDS011;28312;43.460;11.810;2023-03-18T23:02:58;6.20;;;2.30;;
42134;SDS011;28312;43.460;11.810;2023-03-18T23:07:02;3.40;;;2.03;;
42134;SDS011;28312;43.460;11.810;2023-03-18T23:11:06;3.45;;;2.25;;
42134;SDS011;28312;43.460;11.810;2023-03-18T23:15:19;4.40;;;2.58;;
42134;SDS011;28312;43.460;11.810;2023-03-18T23:19:23;3.88;;;2.45;;
42134;SDS011;28312;43.460;11.810;2023-03-18T23:23:27;3.47;;;2.28;;
42134;SDS011;28312;43.460;11.810;2023-03-18T23:27:31;3.10;;;2.15;;
42134;SDS011;28312;43.460;11.810;2023-03-18T23:31:37;5.32;;;2.17;;
42134;SDS011;28312;43.460;11.810;2023-03-18T23:35:41;3.65;;;2.42;;
42134;SDS011;28312;43.460;11.810;2023-03-18T23:39:46;3.25;;;2.60;;
42134;SDS011;28312;43.460;11.810;2023-03-18T23:43:49;3.72;;;2.65;;
42134;SDS011;28312;43.460;11.810;2023-03-18T23:47:53;3.70;;;2.38;;
42134;SDS011;28312;43.460;11.810;2023-03-18T23:51:57;3.70;;;2.30;;
42134;SDS011;28312;43.460;11.810;2023-03-18T23:56:02;4.97;;;2.42;;
